createdAt,value
2018-02-02T05:06:15.670Z,9.70
2018-02-02T05:08:42.447Z,10.57
2018-02-02T05:11:09.217Z,12.97
2018-02-02T05:13:36.033Z,12.93
2018-02-02T05:16:02.855Z,12.50
2018-02-02T05:18:29.788Z,13.33
2018-02-02T05:20:56.633Z,11.87
2018-02-02T05:23:23.443Z,11.70
2018-02-02T05:25:50.203Z,11.07
2018-02-02T05:28:17.019Z,12.00
2018-02-02T05:30:43.918Z,9.73
2018-02-02T05:33:10.730Z,9.73
2018-02-02T05:35:37.842Z,11.53
2018-02-02T05:38:04.641Z,12.67
2018-02-02T05:40:31.427Z,16.47
2018-02-02T05:42:58.255Z,12.93
2018-02-02T05:45:25.066Z,10.83
2018-02-02T05:47:51.831Z,13.40
2018-02-02T05:50:18.627Z,14.27
2018-02-02T05:52:45.406Z,10.30
2018-02-02T05:55:12.181Z,14.57
2018-02-02T05:57:38.983Z,15.83
2018-02-02T06:00:05.773Z,10.57
2018-02-02T06:02:32.542Z,11.83
2018-02-02T06:04:59.343Z,12.33
2018-02-02T06:07:26.138Z,14.43
2018-02-02T06:09:52.926Z,14.37
2018-02-02T06:12:19.746Z,10.07
2018-02-02T06:14:46.515Z,14.80
2018-02-02T06:17:13.283Z,11.67
2018-02-02T06:19:40.150Z,14.37
2018-02-02T06:22:06.896Z,12.40
2018-02-02T06:24:33.696Z,12.97
2018-02-02T06:27:00.479Z,14.10
2018-02-02T06:29:27.230Z,10.13
2018-02-02T06:31:54.014Z,14.47
2018-02-02T06:34:20.812Z,11.60
2018-02-02T06:36:47.594Z,14.97
2018-02-02T06:39:14.424Z,14.97
2018-02-02T06:41:41.518Z,15.00
2018-02-02T06:44:08.339Z,14.23
2018-02-02T06:46:35.110Z,15.17
2018-02-02T06:49:01.919Z,13.90
2018-02-02T06:51:28.691Z,13.87
2018-02-02T06:53:55.443Z,16.40
2018-02-02T06:56:22.243Z,18.00
2018-02-02T06:58:49.040Z,13.40
2018-02-02T07:01:15.814Z,16.00
2018-02-02T07:03:42.626Z,16.57
2018-02-02T07:06:09.398Z,16.97
2018-02-02T07:08:36.155Z,14.30
2018-02-02T07:11:02.966Z,15.13
2018-02-02T07:13:29.745Z,18.20
2018-02-02T07:15:56.521Z,15.73
2018-02-02T07:18:23.339Z,16.57
2018-02-02T07:20:50.095Z,13.07
2018-02-02T07:23:16.863Z,14.60
2018-02-02T07:25:43.669Z,13.30
2018-02-02T07:28:10.453Z,15.80
2018-02-02T07:30:37.233Z,15.63
2018-02-02T07:33:04.035Z,17.80
2018-02-02T07:35:30.807Z,17.50
2018-02-02T07:37:57.599Z,14.10
2018-02-02T07:40:24.405Z,16.57
2018-02-02T07:42:51.158Z,14.77
2018-02-02T07:45:17.906Z,17.40
2018-02-02T07:47:44.714Z,15.40
2018-02-02T07:50:11.523Z,15.60
2018-02-02T07:52:38.286Z,17.03
2018-02-02T07:55:05.083Z,16.23
2018-02-02T07:57:31.855Z,16.33
2018-02-02T07:59:58.652Z,14.57
2018-02-02T08:02:25.468Z,16.00
2018-02-02T08:04:52.248Z,15.00
2018-02-02T08:07:19.021Z,16.07
2018-02-02T08:09:45.839Z,16.67
2018-02-02T08:12:12.615Z,18.53
2018-02-02T08:14:39.362Z,17.17
2018-02-02T08:17:06.205Z,17.30
2018-02-02T08:19:32.985Z,17.40
2018-02-02T08:21:59.797Z,16.17
2018-02-02T08:24:26.598Z,16.83
2018-02-02T08:26:53.395Z,16.20
2018-02-02T08:29:20.149Z,16.23
2018-02-02T08:31:46.981Z,17.00
2018-02-02T08:34:13.754Z,8.20
2018-02-02T08:36:40.511Z,14.47
2018-02-02T08:39:07.334Z,16.50
2018-02-02T08:41:34.091Z,15.70
2018-02-02T08:44:00.871Z,14.40
2018-02-02T08:46:27.683Z,16.00
2018-02-02T08:48:54.459Z,16.10
2018-02-02T08:51:21.230Z,16.10
2018-02-02T08:53:48.042Z,18.20
2018-02-02T08:56:14.871Z,19.20
2018-02-02T08:58:41.631Z,16.83
2018-02-02T09:01:14.253Z,17.77
2018-02-02T09:03:41.033Z,15.53
2018-02-02T09:06:07.805Z,18.40
2018-02-02T09:08:34.645Z,15.20
2018-02-02T09:11:01.418Z,15.47
2018-02-02T09:13:28.201Z,18.23
2018-02-02T09:15:54.991Z,17.40
2018-02-02T09:18:21.783Z,21.43
2018-02-02T09:20:48.576Z,17.97
2018-02-02T09:23:15.384Z,15.93
2018-02-02T09:25:42.153Z,17.47
2018-02-02T09:28:08.907Z,16.50
2018-02-02T09:30:35.722Z,15.67
2018-02-02T09:33:02.503Z,17.60
2018-02-02T09:35:29.299Z,15.80
2018-02-02T09:37:56.118Z,15.97
2018-02-02T09:40:22.908Z,15.73
2018-02-02T09:42:49.698Z,16.17
2018-02-02T09:45:16.496Z,15.80
2018-02-02T09:47:43.271Z,14.60
2018-02-02T09:50:10.033Z,12.60
2018-02-02T09:52:36.840Z,7.27
2018-02-02T09:55:03.618Z,13.07
2018-02-02T09:57:30.371Z,15.70
2018-02-02T09:59:57.176Z,14.27
2018-02-02T10:02:23.935Z,13.10
2018-02-02T10:04:50.715Z,14.80
2018-02-02T10:07:17.527Z,14.07
2018-02-02T10:09:44.282Z,17.20
2018-02-02T10:12:11.065Z,16.13
2018-02-02T10:14:37.889Z,15.37
2018-02-02T10:17:04.642Z,14.90
2018-02-02T10:19:31.394Z,15.17
2018-02-02T10:21:58.210Z,15.50
2018-02-02T10:24:24.985Z,14.17
2018-02-02T10:26:51.769Z,13.67
2018-02-02T10:29:18.600Z,15.23
2018-02-02T10:31:45.481Z,12.00
2018-02-02T10:34:12.259Z,16.43
2018-02-02T10:36:39.102Z,12.13
2018-02-02T10:39:05.867Z,13.63
2018-02-02T10:41:32.647Z,12.53
2018-02-02T10:43:59.451Z,14.37
2018-02-02T10:46:26.211Z,13.90
2018-02-02T10:48:52.993Z,13.67
2018-02-02T10:51:19.808Z,14.10
2018-02-02T10:53:46.555Z,14.03
2018-02-02T10:56:13.350Z,15.37
2018-02-02T10:58:40.167Z,14.80
2018-02-02T11:01:12.484Z,13.90
2018-02-02T11:03:44.881Z,12.93
2018-02-02T11:06:12.437Z,11.93
2018-02-02T11:08:39.191Z,13.27
2018-02-02T11:11:05.993Z,13.17
2018-02-02T11:13:32.739Z,13.73
2018-02-02T11:15:59.589Z,12.43
2018-02-02T11:18:26.368Z,13.67
2018-02-02T11:20:53.131Z,11.83
2018-02-02T11:23:19.905Z,10.77
2018-02-02T11:25:46.694Z,13.10
2018-02-02T11:28:13.506Z,12.97
2018-02-02T11:30:40.272Z,12.63
2018-02-02T11:33:07.098Z,13.97
2018-02-02T11:35:33.880Z,13.17
2018-02-02T11:38:00.687Z,11.33
2018-02-02T11:40:27.498Z,11.97
2018-02-02T11:42:54.286Z,10.70
2018-02-02T11:45:21.039Z,10.67
2018-02-02T11:47:47.842Z,11.13
2018-02-02T11:50:14.587Z,10.73
2018-02-02T11:52:41.453Z,10.80
2018-02-02T11:55:08.239Z,9.83
2018-02-02T11:57:35.010Z,10.70
2018-02-02T12:00:01.835Z,12.00
2018-02-02T12:02:28.661Z,9.90
2018-02-02T12:04:55.445Z,11.50
2018-02-02T12:07:22.222Z,10.40
2018-02-02T12:09:49.030Z,11.47
2018-02-02T12:12:15.799Z,11.20
2018-02-02T12:14:42.640Z,10.30
2018-02-02T12:17:09.493Z,10.80
2018-02-02T12:19:36.281Z,8.90
2018-02-02T12:22:06.706Z,10.00
2018-02-02T12:24:39.330Z,8.33
2018-02-02T12:27:11.683Z,9.07
2018-02-02T12:29:44.215Z,7.80
2018-02-02T12:32:12.886Z,9.83
2018-02-02T12:34:42.920Z,11.97
2018-02-02T12:37:09.735Z,8.87
2018-02-02T12:39:36.522Z,9.50
2018-02-02T12:42:03.320Z,12.00
2018-02-02T12:44:30.102Z,8.73
2018-02-02T12:46:56.905Z,8.10
2018-02-02T12:49:29.421Z,9.93
2018-02-02T12:51:56.215Z,10.20
2018-02-02T12:54:22.994Z,7.93
2018-02-02T12:56:49.770Z,8.23
2018-02-02T12:59:16.588Z,9.27
2018-02-02T13:01:43.345Z,9.20
2018-02-02T13:04:10.595Z,8.60
2018-02-02T13:06:37.408Z,8.43
2018-02-02T13:09:04.221Z,9.33
2018-02-02T13:11:30.989Z,7.80
2018-02-02T13:13:57.782Z,7.37
2018-02-02T13:16:24.600Z,8.27
2018-02-02T13:18:51.408Z,7.80
2018-02-02T13:21:18.230Z,7.77
2018-02-02T13:23:45.021Z,8.20
2018-02-02T13:26:12.942Z,8.07
2018-02-02T13:28:39.746Z,8.33
2018-02-02T13:31:06.521Z,8.37
2018-02-02T13:33:33.344Z,6.40
2018-02-02T13:36:00.137Z,6.40
2018-02-02T13:38:26.890Z,7.47
2018-02-02T13:40:53.760Z,7.67
2018-02-02T13:43:20.571Z,7.17
2018-02-02T13:45:47.365Z,7.57
2018-02-02T13:48:14.117Z,7.90
2018-02-02T13:50:40.927Z,6.70
2018-02-02T13:53:07.753Z,9.60
2018-02-02T13:55:34.534Z,7.93
2018-02-02T13:58:02.139Z,8.57
2018-02-02T14:00:29.178Z,8.40
2018-02-02T14:02:56.032Z,9.87
2018-02-02T14:05:22.844Z,8.93
2018-02-02T14:07:49.643Z,7.33
2018-02-02T14:10:16.427Z,7.90
2018-02-02T14:12:43.233Z,8.70
2018-02-02T14:15:10.012Z,8.20
2018-02-02T14:17:36.774Z,7.13
2018-02-02T14:20:03.567Z,7.00
2018-02-02T14:22:30.329Z,5.90
2018-02-02T14:24:57.096Z,6.80
2018-02-02T14:27:23.923Z,8.63
2018-02-02T14:29:51.090Z,6.13
2018-02-02T14:32:17.878Z,7.63
2018-02-02T14:34:44.731Z,9.10
2018-02-02T14:37:11.519Z,8.00
2018-02-02T14:39:38.313Z,7.90
2018-02-02T14:42:05.119Z,7.47
2018-02-02T14:44:31.922Z,8.63
2018-02-02T14:46:58.709Z,8.50
2018-02-02T14:49:25.542Z,9.00
2018-02-02T14:51:52.358Z,8.33
2018-02-02T14:54:19.147Z,9.20
2018-02-02T14:56:45.956Z,7.33
2018-02-02T14:59:12.731Z,7.40
2018-02-02T15:01:39.590Z,5.83
2018-02-02T15:04:06.877Z,6.30
2018-02-02T15:06:33.678Z,5.60
2018-02-02T15:09:00.483Z,6.93
2018-02-02T15:11:27.275Z,4.87
2018-02-02T15:13:54.064Z,5.67
2018-02-02T15:16:20.830Z,5.40
2018-02-02T15:18:47.633Z,6.50
2018-02-02T15:21:14.410Z,5.70
2018-02-02T15:23:41.172Z,5.70
2018-02-02T15:26:08.011Z,6.13
2018-02-02T15:28:34.772Z,6.07
2018-02-02T15:31:01.538Z,6.67
2018-02-02T15:33:28.334Z,7.27
2018-02-02T15:35:55.087Z,7.40
2018-02-02T15:38:21.857Z,7.70
2018-02-02T15:40:48.638Z,8.50
2018-02-02T15:43:15.677Z,8.07
2018-02-02T15:45:42.485Z,6.90
2018-02-02T15:48:09.309Z,8.33
2018-02-02T15:50:36.074Z,7.60
2018-02-02T15:53:02.820Z,9.53
2018-02-02T15:55:29.611Z,6.23
2018-02-02T15:57:56.445Z,14.67
2018-02-02T16:00:23.207Z,13.63
2018-02-02T16:02:50.045Z,18.27
2018-02-02T16:05:16.804Z,9.50
2018-02-02T16:07:43.686Z,9.40
2018-02-02T16:10:10.467Z,8.23
2018-02-02T16:12:37.226Z,7.87
2018-02-02T16:15:03.991Z,7.10
2018-02-02T16:17:30.792Z,7.50
2018-02-02T16:19:57.543Z,11.00
2018-02-02T16:22:24.291Z,9.97
2018-02-02T16:24:51.107Z,10.43
2018-02-02T16:27:17.887Z,9.90
2018-02-02T16:29:44.674Z,8.50
2018-02-02T16:32:11.480Z,8.03
2018-02-02T16:34:38.253Z,7.67
2018-02-02T16:37:05.049Z,9.03
2018-02-02T16:39:31.863Z,12.77
2018-02-02T16:41:58.630Z,13.20
2018-02-02T16:44:25.422Z,10.00
2018-02-02T16:46:52.293Z,10.87
2018-02-02T16:49:19.194Z,10.37
2018-02-02T16:51:45.978Z,9.97
2018-02-02T16:54:12.789Z,9.47
2018-02-02T16:56:39.578Z,10.70
2018-02-02T16:59:06.358Z,7.93
2018-02-02T17:01:33.157Z,7.67
2018-02-02T17:03:59.963Z,7.93
2018-02-02T17:06:26.748Z,10.17
2018-02-02T17:08:53.579Z,9.33
2018-02-02T17:11:20.390Z,8.27
2018-02-02T17:13:47.173Z,8.90
2018-02-02T17:16:13.983Z,9.07
2018-02-02T17:18:40.730Z,9.00
2018-02-02T17:21:07.491Z,9.30
2018-02-02T17:23:34.306Z,8.43
2018-02-02T17:26:01.079Z,9.17
2018-02-02T17:28:27.867Z,6.73
2018-02-02T17:30:54.670Z,7.97
2018-02-02T17:33:21.491Z,7.20
2018-02-02T17:35:48.253Z,8.03
2018-02-02T17:38:15.071Z,8.80
2018-02-02T17:40:41.839Z,8.20
2018-02-02T17:43:08.616Z,8.50
2018-02-02T17:45:35.421Z,8.33
2018-02-02T17:48:02.170Z,8.50
2018-02-02T17:50:28.945Z,9.50
2018-02-02T17:52:55.737Z,8.63
2018-02-02T17:55:22.488Z,8.90
2018-02-02T17:57:49.265Z,7.90
2018-02-02T18:00:20.512Z,10.87
2018-02-02T18:02:47.276Z,7.43
2018-02-02T18:05:14.042Z,9.00
2018-02-02T18:07:40.873Z,10.83
2018-02-02T18:10:07.660Z,11.07
2018-02-02T18:12:34.565Z,10.07
2018-02-02T18:15:01.381Z,11.63
2018-02-02T18:17:28.160Z,10.03
2018-02-02T18:19:54.950Z,9.10
2018-02-02T18:22:21.756Z,9.80
2018-02-02T18:24:48.531Z,11.10
2018-02-02T18:27:15.292Z,13.90
2018-02-02T18:29:42.088Z,12.03
2018-02-02T18:32:09.095Z,9.73
2018-02-02T18:34:35.866Z,12.57
2018-02-02T18:37:02.686Z,12.00
2018-02-02T18:39:29.518Z,12.03
2018-02-02T18:41:56.301Z,11.40
2018-02-02T18:44:23.098Z,7.77
2018-02-02T18:46:49.868Z,5.60
2018-02-02T18:49:16.637Z,5.70
2018-02-02T18:51:43.434Z,4.33
2018-02-02T18:54:10.201Z,4.20
2018-02-02T18:56:36.978Z,4.70
2018-02-02T18:59:03.838Z,4.27
2018-02-02T19:01:30.625Z,3.77
2018-02-02T19:03:57.382Z,4.27
2018-02-02T19:06:24.163Z,4.37
2018-02-02T19:08:50.918Z,4.03
2018-02-02T19:11:18.119Z,2.30
2018-02-02T19:13:44.930Z,2.67
2018-02-02T19:16:11.706Z,3.30
2018-02-02T19:18:38.476Z,2.60
2018-02-02T19:21:05.277Z,2.30
2018-02-02T19:23:33.290Z,2.30
2018-02-02T19:26:00.051Z,2.13
2018-02-02T19:28:27.507Z,2.83
2018-02-02T19:30:54.278Z,3.13
2018-02-02T19:33:21.041Z,2.30
2018-02-02T19:35:47.848Z,4.00
2018-02-02T19:38:14.615Z,2.93
2018-02-02T19:40:41.411Z,2.90
2018-02-02T19:43:08.196Z,3.10
2018-02-02T19:45:34.965Z,2.50
2018-02-02T19:48:01.755Z,3.43
2018-02-02T19:50:28.573Z,3.57
2018-02-02T19:52:55.350Z,3.03
2018-02-02T19:55:24.185Z,3.40
2018-02-02T19:57:53.479Z,3.17
2018-02-02T20:00:20.250Z,2.80
2018-02-02T20:02:47.047Z,3.30
2018-02-02T20:05:13.833Z,2.80
2018-02-02T20:07:40.579Z,2.80
2018-02-02T20:10:07.389Z,3.13
2018-02-02T20:12:34.190Z,2.00
2018-02-02T20:15:02.109Z,3.77
2018-02-02T20:17:28.865Z,3.90
2018-02-02T20:19:55.691Z,1.50
2018-02-02T20:22:22.466Z,1.37
2018-02-02T20:24:49.233Z,3.40
2018-02-02T20:27:16.074Z,3.80
2018-02-02T20:29:42.826Z,2.93
2018-02-02T20:32:09.623Z,1.60
2018-02-02T20:34:36.458Z,3.20
2018-02-02T20:37:03.537Z,1.75
2018-02-02T20:39:30.311Z,3.17
2018-02-02T20:41:57.121Z,3.00
2018-02-02T20:44:23.904Z,2.87
2018-02-02T20:46:50.685Z,2.10
2018-02-02T20:49:17.481Z,4.53
2018-02-02T20:51:44.254Z,2.30
2018-02-02T20:54:11.046Z,3.13
2018-02-02T20:56:37.859Z,3.13
2018-02-02T20:59:04.655Z,3.37
2018-02-02T21:01:31.471Z,2.40
2018-02-02T21:03:58.271Z,2.70
2018-02-02T21:06:25.090Z,2.00
2018-02-02T21:08:51.863Z,2.50
2018-02-02T21:11:18.822Z,3.50
2018-02-02T21:13:45.634Z,2.57
2018-02-02T21:16:12.414Z,3.33
2018-02-02T21:18:39.253Z,3.10
2018-02-02T21:21:06.026Z,4.83
2018-02-02T21:23:32.795Z,2.80
2018-02-02T21:25:59.633Z,3.07
2018-02-02T21:28:26.383Z,3.50
2018-02-02T21:30:53.122Z,3.80
2018-02-02T21:33:19.928Z,3.47
2018-02-02T21:35:46.700Z,3.47
2018-02-02T21:38:13.472Z,3.07
2018-02-02T21:40:40.317Z,3.30
2018-02-02T21:43:07.071Z,2.30
2018-02-02T21:45:33.867Z,2.83
2018-02-02T21:48:00.649Z,2.93
2018-02-02T21:50:27.975Z,2.30
2018-02-02T21:52:54.740Z,2.87
2018-02-02T21:55:21.549Z,1.70
2018-02-02T21:57:48.283Z,2.57
2018-02-02T22:00:15.046Z,2.87
2018-02-02T22:02:41.831Z,3.00
2018-02-02T22:05:08.579Z,1.43
2018-02-02T22:07:35.336Z,2.87
2018-02-02T22:10:02.149Z,2.47
2018-02-02T22:12:28.905Z,2.50
2018-02-02T22:14:55.682Z,3.40
2018-02-02T22:17:22.548Z,4.40
2018-02-02T22:19:49.309Z,4.30
2018-02-02T22:22:16.102Z,3.37
2018-02-02T22:24:42.915Z,4.12
2018-02-02T22:27:09.754Z,3.80
2018-02-02T22:29:36.545Z,4.47
2018-02-02T22:32:03.397Z,3.95
2018-02-02T22:34:30.159Z,3.60
2018-02-02T22:36:56.957Z,4.82
2018-02-02T22:39:23.790Z,4.00
2018-02-02T22:41:50.565Z,3.80
2018-02-02T22:44:17.323Z,3.43
2018-02-02T22:46:44.133Z,3.08
2018-02-02T22:49:10.927Z,2.65
2018-02-02T22:51:37.694Z,3.70
2018-02-02T22:54:04.537Z,3.75
2018-02-02T22:56:31.297Z,5.25
2018-02-02T22:58:58.043Z,3.27
2018-02-02T23:01:24.819Z,2.63
2018-02-02T23:03:51.617Z,3.70
2018-02-02T23:06:18.402Z,3.80
2018-02-02T23:08:45.200Z,3.10
2018-02-02T23:11:11.957Z,2.87
2018-02-02T23:13:38.744Z,3.47
2018-02-02T23:16:05.621Z,3.08
2018-02-02T23:18:32.375Z,2.70
2018-02-02T23:20:59.130Z,3.20
2018-02-02T23:23:25.937Z,3.30
2018-02-02T23:25:52.712Z,3.95
2018-02-02T23:28:19.481Z,2.15
2018-02-02T23:30:46.330Z,3.47
